createdAt,value
2023-03-06T00:00:55.769Z,4.32
2023-03-06T00:01:55.745Z,4.22
2023-03-06T00:02:55.741Z,4.34
2023-03-06T00:03:55.799Z,4.21
2023-03-06T00:04:55.713Z,4.08
2023-03-06T00:05:55.766Z,4.10
2023-03-06T00:06:55.718Z,4.15
2023-03-06T00:07:55.683Z,4.21
2023-03-06T00:08:55.682Z,4.22
2023-03-06T00:09:55.662Z,4.19
2023-03-06T00:10:55.682Z,4.18
2023-03-06T00:11:55.645Z,4.19
2023-03-06T00:12:55.637Z,4.25
2023-03-06T00:13:55.623Z,4.19
2023-03-06T00:14:55.610Z,4.12
2023-03-06T00:15:55.662Z,4.28
2023-03-06T00:16:55.587Z,4.22
2023-03-06T00:17:55.576Z,4.08
2023-03-06T00:18:55.587Z,4.08
2023-03-06T00:19:55.556Z,4.10
2023-03-06T00:20:55.556Z,3.94
2023-03-06T00:21:55.527Z,3.85
2023-03-06T00:22:55.549Z,3.71
2023-03-06T00:23:55.512Z,3.67
2023-03-06T00:24:55.496Z,3.68
2023-03-06T00:25:55.509Z,3.67
2023-03-06T00:26:55.483Z,3.68
2023-03-06T00:27:55.466Z,3.64
2023-03-06T00:28:55.454Z,3.62
2023-03-06T00:29:55.467Z,3.61
2023-03-06T00:30:55.466Z,3.65
2023-03-06T00:31:55.419Z,3.62
2023-03-06T00:32:55.425Z,3.61
2023-03-06T00:33:55.404Z,3.58
2023-03-06T00:34:55.394Z,3.61
2023-03-06T00:35:55.516Z,3.60
2023-03-06T00:36:55.438Z,3.70
2023-03-06T00:37:55.428Z,3.64
2023-03-06T00:38:55.403Z,3.67
2023-03-06T00:39:55.457Z,3.62
2023-03-06T00:40:55.327Z,3.40
2023-03-06T00:41:55.335Z,3.20
2023-03-06T00:42:55.318Z,3.13
2023-03-06T00:43:55.293Z,3.16
2023-03-06T00:44:55.287Z,3.13
2023-03-06T00:45:55.297Z,3.09
2023-03-06T00:46:55.302Z,2.97
2023-03-06T00:47:55.265Z,2.85
2023-03-06T00:48:55.236Z,2.95
2023-03-06T00:49:55.241Z,2.94
2023-03-06T00:50:55.225Z,2.89
2023-03-06T00:51:55.224Z,2.97
2023-03-06T00:52:55.199Z,3.05
2023-03-06T00:53:55.191Z,3.09
2023-03-06T00:54:55.207Z,3.20
2023-03-06T00:55:55.164Z,3.20
2023-03-06T00:56:55.172Z,3.15
2023-03-06T00:57:55.163Z,3.25
2023-03-06T00:58:55.160Z,3.28
2023-03-06T00:59:55.120Z,3.27
2023-03-06T01:00:55.130Z,3.39
2023-03-06T01:01:55.159Z,3.34
2023-03-06T01:02:55.090Z,3.39
2023-03-06T01:03:55.081Z,3.39
2023-03-06T01:04:55.094Z,3.49
2023-03-06T01:05:55.059Z,3.43
2023-03-06T01:06:55.122Z,3.40
2023-03-06T01:07:55.035Z,3.47
2023-03-06T01:08:55.025Z,3.50
2023-03-06T01:09:55.015Z,3.52
2023-03-06T01:10:55.022Z,3.50
2023-03-06T01:11:55.002Z,3.58
2023-03-06T01:13:02.034Z,3.50
2023-03-06T01:13:54.977Z,3.46
2023-03-06T01:14:54.953Z,3.49
2023-03-06T01:15:54.944Z,3.47
2023-03-06T01:16:54.939Z,3.44
2023-03-06T01:17:54.926Z,3.47
2023-03-06T01:18:54.908Z,3.54
2023-03-06T01:19:54.899Z,3.54
2023-03-06T01:20:54.888Z,3.57
2023-03-06T01:21:54.905Z,3.53
2023-03-06T01:22:54.868Z,3.52
2023-03-06T01:23:54.858Z,3.54
2023-03-06T01:24:54.861Z,3.60
2023-03-06T01:25:54.834Z,3.61
2023-03-06T01:26:54.867Z,3.68
2023-03-06T01:27:54.809Z,3.70
2023-03-06T01:28:54.802Z,3.67
2023-03-06T01:29:54.789Z,3.64
2023-03-06T01:30:54.784Z,3.72
2023-03-06T01:31:54.811Z,3.78
2023-03-06T01:32:54.767Z,3.71
2023-03-06T01:33:54.746Z,3.72
2023-03-06T01:34:54.733Z,3.72
2023-03-06T01:35:54.809Z,3.72
2023-03-06T01:36:54.740Z,3.72
2023-03-06T01:37:54.706Z,3.75
2023-03-06T01:38:54.716Z,3.72
2023-03-06T01:39:54.688Z,3.72
2023-03-06T01:40:54.676Z,3.70
2023-03-06T01:41:54.695Z,3.78
2023-03-06T01:42:54.702Z,3.70
2023-03-06T01:43:54.642Z,3.70
2023-03-06T01:44:54.638Z,3.71
2023-03-06T01:45:54.667Z,3.75
2023-03-06T01:46:54.637Z,3.76
2023-03-06T01:47:54.604Z,3.65
2023-03-06T01:48:54.592Z,3.82
2023-03-06T01:49:54.582Z,3.79
2023-03-06T01:50:54.580Z,3.80
2023-03-06T01:51:54.591Z,3.88
2023-03-06T01:52:54.548Z,3.88
2023-03-06T01:53:54.555Z,3.86
2023-03-06T01:54:54.596Z,3.80
2023-03-06T01:55:54.521Z,3.86
2023-03-06T01:56:54.529Z,3.90
2023-03-06T01:57:54.497Z,3.88
2023-03-06T01:58:54.577Z,3.88
2023-03-06T01:59:54.476Z,3.86
2023-03-06T02:00:54.515Z,4.01
2023-03-06T02:01:54.539Z,3.89
2023-03-06T02:02:54.443Z,3.85
2023-03-06T02:03:54.432Z,3.98
2023-03-06T02:04:54.423Z,3.88
2023-03-06T02:05:54.418Z,4.01
2023-03-06T02:06:54.418Z,4.01
2023-03-06T02:07:54.393Z,3.98
2023-03-06T02:08:54.380Z,3.96
2023-03-06T02:09:54.395Z,3.96
2023-03-06T02:10:54.357Z,3.98
2023-03-06T02:11:54.369Z,3.97
2023-03-06T02:12:54.336Z,3.96
2023-03-06T02:13:54.333Z,3.92
2023-03-06T02:14:54.362Z,3.94
2023-03-06T02:15:54.312Z,3.89
2023-03-06T02:16:54.325Z,3.89
2023-03-06T02:17:54.301Z,3.85
2023-03-06T02:18:54.291Z,3.89
2023-03-06T02:19:54.282Z,3.90
2023-03-06T02:20:54.258Z,3.96
2023-03-06T02:21:54.264Z,3.94
2023-03-06T02:22:54.238Z,3.96
2023-03-06T02:23:54.227Z,3.96
2023-03-06T02:24:54.229Z,3.98
2023-03-06T02:25:54.207Z,3.92
2023-03-06T02:26:54.213Z,3.98
2023-03-06T02:27:54.192Z,3.85
2023-03-06T02:28:54.169Z,3.94
2023-03-06T02:29:54.159Z,3.94
2023-03-06T02:30:54.273Z,4.00
2023-03-06T02:31:54.150Z,3.92
2023-03-06T02:32:54.129Z,3.97
2023-03-06T02:33:54.119Z,3.92
2023-03-06T02:34:54.116Z,3.89
2023-03-06T02:35:54.140Z,3.97
2023-03-06T02:36:54.096Z,3.88
2023-03-06T02:37:54.076Z,3.92
2023-03-06T02:38:54.064Z,3.90
2023-03-06T02:39:54.052Z,3.90
2023-03-06T02:40:54.058Z,3.92
2023-03-06T02:41:54.048Z,3.86
2023-03-06T02:42:54.019Z,3.90
2023-03-06T02:43:54.013Z,3.89
2023-03-06T02:44:53.997Z,3.88
2023-03-06T02:45:54.064Z,3.94
2023-03-06T02:46:54.007Z,3.86
2023-03-06T02:47:53.965Z,3.90
2023-03-06T02:48:53.953Z,3.85
2023-03-06T02:49:53.944Z,3.89
2023-03-06T02:50:53.931Z,3.94
2023-03-06T02:51:53.947Z,3.88
2023-03-06T02:52:53.911Z,3.90
2023-03-06T02:53:53.903Z,3.83
2023-03-06T02:54:53.894Z,3.82
2023-03-06T02:55:53.879Z,3.78
2023-03-06T02:56:53.897Z,3.79
2023-03-06T02:57:53.900Z,3.82
2023-03-06T02:58:53.849Z,3.78
2023-03-06T02:59:53.850Z,3.85
2023-03-06T03:00:53.833Z,3.79
2023-03-06T03:01:53.815Z,3.78
2023-03-06T03:02:53.866Z,3.82
2023-03-06T03:03:53.802Z,3.83
2023-03-06T03:04:53.796Z,3.85
2023-03-06T03:05:53.771Z,3.82
2023-03-06T03:06:53.808Z,3.79
2023-03-06T03:07:53.793Z,3.82
2023-03-06T03:08:53.734Z,3.86
2023-03-06T03:09:53.733Z,3.79
2023-03-06T03:10:53.721Z,3.88
2023-03-06T03:11:53.702Z,3.78
2023-03-06T03:12:53.711Z,3.78
2023-03-06T03:13:53.687Z,3.80
2023-03-06T03:14:53.671Z,3.80
2023-03-06T03:15:53.697Z,3.88
2023-03-06T03:16:53.650Z,3.83
2023-03-06T03:17:53.687Z,3.83
2023-03-06T03:18:53.648Z,3.90
2023-03-06T03:19:53.627Z,3.86
2023-03-06T03:20:53.607Z,3.88
2023-03-06T03:21:53.621Z,3.88
2023-03-06T03:22:53.622Z,3.90
2023-03-06T03:23:53.579Z,4.01
2023-03-06T03:24:53.635Z,3.88
2023-03-06T03:25:53.568Z,3.88
2023-03-06T03:26:53.544Z,3.90
2023-03-06T03:27:53.554Z,3.86
2023-03-06T03:28:53.522Z,3.89
2023-03-06T03:29:53.515Z,4.00
2023-03-06T03:30:53.521Z,4.00
2023-03-06T03:31:53.495Z,3.92
2023-03-06T03:32:53.509Z,3.96
2023-03-06T03:33:53.476Z,3.96
2023-03-06T03:34:53.478Z,3.94
2023-03-06T03:35:53.470Z,3.96
2023-03-06T03:36:53.435Z,3.94
2023-03-06T03:37:53.452Z,3.90
2023-03-06T03:38:53.426Z,4.03
2023-03-06T03:39:53.413Z,3.96
2023-03-06T03:40:53.397Z,3.98
2023-03-06T03:41:53.384Z,3.94
2023-03-06T03:42:53.399Z,4.06
2023-03-06T03:43:53.364Z,4.04
2023-03-06T03:44:53.354Z,3.92
2023-03-06T03:45:53.372Z,3.94
2023-03-06T03:46:53.352Z,3.96
2023-03-06T03:47:53.339Z,3.97
2023-03-06T03:48:53.321Z,3.97
2023-03-06T03:49:53.301Z,3.92
2023-03-06T03:50:53.318Z,3.92
2023-03-06T03:51:53.283Z,3.98
2023-03-06T03:52:53.290Z,3.92
2023-03-06T03:53:53.258Z,3.98
2023-03-06T03:54:53.251Z,3.97
2023-03-06T03:55:53.236Z,3.96
2023-03-06T03:56:53.228Z,3.96
2023-03-06T03:57:53.241Z,3.98
2023-03-06T03:58:53.199Z,3.97
2023-03-06T03:59:53.195Z,4.00
2023-03-06T04:00:53.181Z,3.97
2023-03-06T04:01:53.198Z,3.97
2023-03-06T04:02:53.175Z,4.00
2023-03-06T04:03:53.151Z,3.97
2023-03-06T04:04:53.226Z,3.94
2023-03-06T04:05:53.133Z,3.98
2023-03-06T04:06:53.136Z,3.88
2023-03-06T04:07:53.118Z,3.96
2023-03-06T04:08:53.112Z,3.86
2023-03-06T04:09:53.085Z,3.97
2023-03-06T04:10:53.073Z,3.92
2023-03-06T04:11:53.076Z,3.96
2023-03-06T04:12:53.067Z,3.96
2023-03-06T04:13:53.043Z,3.98
2023-03-06T04:14:53.027Z,3.94
2023-03-06T04:15:53.119Z,4.07
2023-03-06T04:16:53.012Z,4.04
2023-03-06T04:17:53.049Z,4.06
2023-03-06T04:18:52.989Z,4.10
2023-03-06T04:19:53.017Z,4.12
2023-03-06T04:20:53.008Z,4.07
2023-03-06T04:21:52.964Z,4.12
2023-03-06T04:22:52.985Z,4.14
2023-03-06T04:23:52.931Z,4.08
2023-03-06T04:24:52.934Z,4.01
2023-03-06T04:25:52.915Z,4.03
2023-03-06T04:26:52.904Z,4.00
2023-03-06T04:27:52.903Z,4.01
2023-03-06T04:28:52.876Z,3.94
2023-03-06T04:29:52.866Z,3.88
2023-03-06T04:30:52.860Z,3.83
2023-03-06T04:31:52.850Z,3.90
2023-03-06T04:32:52.845Z,3.90
2023-03-06T04:33:52.846Z,3.92
2023-03-06T04:34:52.827Z,3.86
2023-03-06T04:35:52.857Z,3.94
2023-03-06T04:36:52.797Z,3.88
2023-03-06T04:37:52.812Z,3.82
2023-03-06T04:38:52.847Z,3.85
2023-03-06T04:39:52.771Z,3.72
2023-03-06T04:40:52.758Z,3.79
2023-03-06T04:41:52.758Z,3.76
2023-03-06T04:42:52.744Z,3.67
2023-03-06T04:43:52.741Z,3.72
2023-03-06T04:44:52.712Z,3.72
2023-03-06T04:45:52.736Z,3.64
2023-03-06T04:46:52.686Z,3.67
2023-03-06T04:47:52.674Z,3.67
2023-03-06T04:48:52.679Z,3.46
2023-03-06T04:49:52.655Z,3.49
2023-03-06T04:50:52.641Z,3.42
2023-03-06T04:51:52.635Z,3.36
2023-03-06T04:52:52.645Z,3.53
2023-03-06T04:53:52.616Z,3.46
2023-03-06T04:54:52.617Z,3.39
2023-03-06T04:55:52.604Z,3.44
2023-03-06T04:56:52.587Z,3.46
2023-03-06T04:57:52.587Z,3.54
2023-03-06T04:58:52.562Z,3.39
2023-03-06T04:59:52.555Z,3.34
2023-03-06T05:00:52.575Z,3.39
2023-03-06T05:01:52.545Z,3.50
2023-03-06T05:02:52.556Z,3.34
2023-03-06T05:03:52.517Z,3.33
2023-03-06T05:04:52.495Z,3.24
2023-03-06T05:05:52.484Z,3.24
2023-03-06T05:06:52.475Z,3.27
2023-03-06T05:07:52.477Z,3.34
2023-03-06T05:08:52.453Z,3.44
2023-03-06T05:09:52.436Z,3.36
2023-03-06T05:10:52.445Z,3.36
2023-03-06T05:11:52.415Z,3.33
2023-03-06T05:12:52.434Z,3.25
2023-03-06T05:13:52.392Z,3.18
2023-03-06T05:14:52.385Z,3.23
2023-03-06T05:15:52.373Z,3.28
2023-03-06T05:16:52.362Z,3.39
2023-03-06T05:17:52.392Z,3.39
2023-03-06T05:18:52.345Z,3.44
2023-03-06T05:19:52.327Z,3.46
2023-03-06T05:20:52.332Z,3.47
2023-03-06T05:21:52.325Z,3.49
2023-03-06T05:22:52.323Z,3.44
2023-03-06T05:23:52.286Z,3.52
2023-03-06T05:24:52.274Z,3.47
2023-03-06T05:25:52.274Z,3.49
2023-03-06T05:26:52.272Z,3.49
2023-03-06T05:27:52.280Z,3.44
2023-03-06T05:28:52.233Z,3.46
2023-03-06T05:29:52.230Z,3.53
2023-03-06T05:30:52.225Z,3.52
2023-03-06T05:31:52.251Z,3.64
2023-03-06T05:32:52.294Z,3.67
2023-03-06T05:33:52.177Z,3.65
2023-03-06T05:34:52.183Z,3.68
2023-03-06T05:35:52.196Z,3.64
2023-03-06T05:36:52.149Z,3.70
2023-03-06T05:37:52.159Z,3.64
2023-03-06T05:38:52.146Z,3.67
2023-03-06T05:39:52.121Z,3.67
2023-03-06T05:40:52.110Z,3.65
2023-03-06T05:41:52.098Z,3.65
2023-03-06T05:42:52.101Z,3.58
2023-03-06T05:43:52.087Z,3.50
2023-03-06T05:44:52.071Z,3.42
2023-03-06T05:45:52.096Z,3.52
2023-03-06T05:46:52.058Z,3.57
2023-03-06T05:47:52.031Z,3.49
2023-03-06T05:48:52.039Z,3.44
2023-03-06T05:49:52.016Z,3.46
2023-03-06T05:50:52.007Z,3.34
2023-03-06T05:51:51.990Z,3.33
2023-03-06T05:52:52.018Z,3.33
2023-03-06T05:53:51.970Z,3.36
2023-03-06T05:54:52.004Z,3.39
2023-03-06T05:55:51.949Z,3.39
2023-03-06T05:56:51.942Z,3.36
2023-03-06T05:57:51.955Z,3.39
2023-03-06T05:58:51.959Z,3.46
2023-03-06T05:59:51.916Z,3.42
2023-03-06T06:00:51.897Z,3.39
2023-03-06T06:01:51.880Z,3.30
2023-03-06T06:02:51.874Z,3.24
2023-03-06T06:03:51.918Z,3.28
2023-03-06T06:04:51.852Z,3.15
2023-03-06T06:05:51.840Z,3.23
2023-03-06T06:06:51.833Z,3.24
2023-03-06T06:07:51.820Z,3.27
2023-03-06T06:08:51.837Z,3.27
2023-03-06T06:09:51.795Z,3.25
2023-03-06T06:10:53.488Z,3.27
2023-03-06T06:11:51.772Z,3.25
2023-03-06T06:12:51.764Z,3.33
2023-03-06T06:13:51.777Z,3.27
2023-03-06T06:14:51.760Z,3.25
2023-03-06T06:15:51.756Z,3.31
2023-03-06T06:16:51.720Z,3.33
2023-03-06T06:17:51.713Z,3.28
2023-03-06T06:18:51.712Z,3.28
2023-03-06T06:19:51.688Z,3.27
2023-03-06T06:20:51.682Z,3.40
2023-03-06T06:21:51.672Z,3.34
2023-03-06T06:22:51.658Z,3.44
2023-03-06T06:23:51.655Z,3.34
2023-03-06T06:24:51.638Z,3.42
2023-03-06T06:25:51.631Z,3.33
2023-03-06T06:26:51.620Z,3.46
2023-03-06T06:27:51.606Z,3.46
2023-03-06T06:28:51.615Z,3.43
2023-03-06T06:29:51.602Z,3.42
2023-03-06T06:30:51.651Z,3.52
2023-03-06T06:31:51.567Z,3.60
2023-03-06T06:32:51.559Z,3.54
2023-03-06T06:33:51.540Z,3.54
2023-03-06T06:34:51.564Z,3.50
2023-03-06T06:35:51.587Z,3.50
2023-03-06T06:36:53.420Z,3.52
2023-03-06T06:37:51.500Z,3.58
2023-03-06T06:38:51.516Z,3.58
2023-03-06T06:39:51.494Z,3.54
2023-03-06T06:41:26.876Z,3.54
2023-03-06T06:42:09.576Z,3.54
2023-03-06T06:42:52.444Z,3.52
2023-03-06T06:43:51.445Z,3.52
2023-03-06T06:44:51.443Z,3.47
2023-03-06T06:45:52.109Z,3.50
2023-03-06T06:47:23.564Z,3.49
2023-03-06T06:47:52.496Z,3.52
2023-03-06T06:48:51.406Z,3.54
2023-03-06T06:49:51.379Z,3.53
2023-03-06T06:50:51.386Z,3.61
2023-03-06T06:51:51.349Z,3.61
2023-03-06T06:52:51.339Z,3.53
2023-03-06T06:53:51.345Z,3.49
2023-03-06T06:54:51.335Z,3.49
2023-03-06T06:55:51.354Z,3.47
2023-03-06T06:56:51.299Z,3.44
2023-03-06T06:57:51.285Z,3.46
2023-03-06T06:58:51.288Z,3.42
2023-03-06T06:59:53.800Z,3.52
2023-03-06T07:00:51.252Z,3.49
2023-03-06T07:01:51.297Z,3.49
2023-03-06T07:02:51.293Z,3.47
2023-03-06T07:03:51.264Z,3.43
2023-03-06T07:05:03.163Z,3.50
2023-03-06T07:05:52.204Z,3.46
2023-03-06T07:06:51.192Z,3.47
2023-03-06T07:07:51.177Z,3.50
2023-03-06T07:08:51.208Z,3.49
2023-03-06T07:09:51.157Z,3.54
2023-03-06T07:10:51.276Z,3.58
2023-03-06T07:11:51.133Z,3.52
2023-03-06T07:12:51.126Z,3.61
2023-03-06T07:13:58.253Z,3.60
2023-03-06T07:14:51.106Z,3.54
2023-03-06T07:15:51.166Z,3.57
2023-03-06T07:16:51.088Z,3.60
2023-03-06T07:17:51.096Z,3.67
2023-03-06T07:18:51.101Z,3.67
2023-03-06T07:19:51.051Z,3.65
2023-03-06T07:20:51.042Z,3.61
2023-03-06T07:21:51.026Z,3.62
2023-03-06T07:22:52.025Z,3.65
2023-03-06T07:23:51.034Z,3.65
2023-03-06T07:24:51.003Z,3.71
2023-03-06T07:25:50.983Z,3.65
2023-03-06T07:26:50.975Z,3.67
2023-03-06T07:27:53.750Z,3.62
2023-03-06T07:28:52.828Z,3.65
2023-03-06T07:29:50.940Z,3.67
2023-03-06T07:30:50.968Z,3.54
2023-03-06T07:31:50.929Z,3.58
2023-03-06T07:32:50.912Z,3.65
2023-03-06T07:33:50.917Z,3.64
2023-03-06T07:34:50.912Z,3.64
2023-03-06T07:35:50.930Z,3.64
2023-03-06T07:36:50.965Z,3.71
2023-03-06T07:37:50.857Z,3.62
2023-03-06T07:38:50.935Z,3.68
2023-03-06T07:39:50.836Z,3.75
2023-03-06T07:40:50.831Z,3.76
2023-03-06T07:41:50.824Z,3.70
2023-03-06T07:42:50.809Z,3.76
2023-03-06T07:43:50.812Z,3.71
2023-03-06T07:44:50.787Z,3.67
2023-03-06T07:45:50.773Z,3.75
2023-03-06T07:46:50.870Z,3.76
2023-03-06T07:47:50.764Z,3.89
2023-03-06T07:48:50.808Z,3.97
2023-03-06T07:49:50.731Z,3.96
2023-03-06T07:50:50.738Z,4.07
2023-03-06T07:51:50.708Z,4.12
2023-03-06T07:52:50.706Z,4.12
2023-03-06T07:53:50.775Z,4.18
2023-03-06T07:54:50.680Z,4.18
2023-03-06T07:55:50.671Z,4.12
2023-03-06T07:56:50.690Z,4.15
2023-03-06T07:57:50.653Z,4.15
2023-03-06T07:58:50.656Z,4.10
2023-03-06T07:59:50.713Z,4.16
2023-03-06T08:00:50.619Z,4.04
2023-03-06T08:01:50.601Z,4.18
2023-03-06T08:02:50.651Z,4.22
2023-03-06T08:03:50.657Z,4.24
2023-03-06T08:04:50.627Z,4.19
2023-03-06T08:05:50.558Z,4.15
2023-03-06T08:06:50.590Z,4.18
2023-03-06T08:07:50.538Z,4.19
2023-03-06T08:08:50.617Z,4.10
2023-03-06T08:09:50.524Z,4.18
2023-03-06T08:10:50.505Z,4.21
2023-03-06T08:11:50.493Z,4.21
2023-03-06T08:12:50.485Z,4.29
2023-03-06T08:13:50.484Z,4.18
2023-03-06T08:14:50.458Z,4.26
2023-03-06T08:15:50.454Z,4.29
2023-03-06T08:16:50.437Z,4.18
2023-03-06T08:17:50.424Z,4.22
2023-03-06T08:18:50.446Z,4.32
2023-03-06T08:19:50.404Z,4.16
2023-03-06T08:20:50.399Z,4.29
2023-03-06T08:21:50.384Z,4.19
2023-03-06T08:22:50.395Z,4.25
2023-03-06T08:23:50.366Z,4.22
2023-03-06T08:24:50.347Z,4.19
2023-03-06T08:25:50.335Z,4.18
2023-03-06T08:26:50.330Z,4.19
2023-03-06T08:27:50.313Z,4.12
2023-03-06T08:28:50.326Z,4.19
2023-03-06T08:29:50.289Z,4.21
2023-03-06T08:30:50.283Z,4.18
2023-03-06T08:31:50.421Z,4.12
2023-03-06T08:32:50.258Z,4.14
2023-03-06T08:33:50.273Z,4.12
2023-03-06T08:34:50.259Z,4.06
2023-03-06T08:35:50.249Z,4.07
2023-03-06T08:36:50.293Z,4.12
2023-03-06T08:37:50.210Z,4.10
2023-03-06T08:38:50.260Z,4.10
2023-03-06T08:39:50.178Z,4.08
2023-03-06T08:40:50.184Z,4.06
2023-03-06T08:41:50.159Z,4.08
2023-03-06T08:42:50.152Z,4.04
2023-03-06T08:43:50.150Z,4.10
2023-03-06T08:44:50.153Z,4.01
2023-03-06T08:45:50.154Z,3.92
2023-03-06T08:46:50.105Z,3.96
2023-03-06T08:47:50.094Z,3.96
2023-03-06T08:48:50.112Z,3.94
2023-03-06T08:49:50.112Z,4.06
2023-03-06T08:50:50.108Z,3.92
2023-03-06T08:51:50.049Z,4.00
2023-03-06T08:52:50.046Z,3.96
2023-03-06T08:53:50.053Z,3.96
2023-03-06T08:54:50.036Z,3.97
2023-03-06T08:55:50.007Z,4.07
2023-03-06T08:56:49.996Z,4.07
2023-03-06T08:57:49.989Z,4.08
2023-03-06T08:58:49.999Z,4.08
2023-03-06T08:59:49.969Z,4.10
2023-03-06T09:00:50.060Z,4.24
2023-03-06T09:01:49.940Z,4.04
2023-03-06T09:02:49.943Z,4.03
2023-03-06T09:03:49.964Z,4.03
2023-03-06T09:04:49.913Z,3.98
2023-03-06T09:05:49.897Z,4.01
2023-03-06T09:06:49.897Z,3.92
2023-03-06T09:07:49.874Z,3.96
2023-03-06T09:08:49.883Z,3.90
2023-03-06T09:09:49.872Z,3.88
2023-03-06T09:10:49.930Z,3.88
2023-03-06T09:11:49.834Z,4.00
2023-03-06T09:12:52.078Z,3.89
2023-03-06T09:13:49.851Z,3.89
2023-03-06T09:14:49.798Z,3.89
2023-03-06T09:15:49.820Z,3.90
2023-03-06T09:16:49.875Z,3.92
2023-03-06T09:17:49.822Z,3.98
2023-03-06T09:18:49.759Z,4.03
2023-03-06T09:19:49.746Z,4.03
2023-03-06T09:20:49.750Z,4.04
2023-03-06T09:21:49.728Z,4.03
2023-03-06T09:22:49.729Z,4.10
2023-03-06T09:23:49.774Z,4.00
2023-03-06T09:24:49.695Z,4.04
2023-03-06T09:25:49.700Z,4.03
2023-03-06T09:26:51.599Z,4.08
2023-03-06T09:27:58.235Z,4.04
2023-03-06T09:28:50.661Z,4.14
2023-03-06T09:29:49.644Z,4.15
2023-03-06T09:30:49.690Z,4.19
2023-03-06T09:31:49.623Z,4.12
2023-03-06T09:32:49.610Z,4.07
2023-03-06T09:33:49.612Z,4.15
2023-03-06T09:34:49.589Z,4.12
2023-03-06T09:35:49.650Z,4.01
2023-03-06T09:36:56.862Z,4.08
2023-03-06T09:37:50.559Z,4.10
2023-03-06T09:38:49.568Z,4.12
2023-03-06T09:39:49.536Z,4.12
2023-03-06T09:40:49.531Z,4.14
2023-03-06T09:41:49.567Z,4.03
2023-03-06T09:42:49.525Z,4.12
2023-03-06T09:43:49.506Z,4.06
2023-03-06T09:44:49.483Z,4.14
2023-03-06T09:45:49.549Z,4.10
2023-03-06T09:46:49.457Z,4.24
2023-03-06T09:47:49.458Z,4.18
2023-03-06T09:48:49.452Z,4.22
2023-03-06T09:49:49.457Z,4.18
2023-03-06T09:50:49.415Z,4.28
2023-03-06T09:51:49.412Z,4.16
2023-03-06T09:52:49.395Z,4.29
2023-03-06T09:53:49.421Z,4.29
2023-03-06T09:54:49.400Z,4.24
2023-03-06T09:55:49.359Z,4.32
2023-03-06T09:56:49.371Z,4.39
2023-03-06T09:57:51.085Z,4.28
2023-03-06T09:58:49.359Z,4.39
2023-03-06T09:59:49.318Z,4.37
2023-03-06T10:00:49.303Z,4.39
2023-03-06T10:01:49.296Z,4.32
2023-03-06T10:02:49.436Z,4.32
2023-03-06T10:03:49.308Z,4.36
2023-03-06T10:04:49.300Z,4.33
2023-03-06T10:05:49.248Z,4.34
2023-03-06T10:06:49.247Z,4.43
2023-03-06T10:07:49.231Z,4.43
2023-03-06T10:08:49.232Z,4.39
2023-03-06T10:09:49.212Z,4.43
2023-03-06T10:10:49.193Z,4.44
2023-03-06T10:11:49.186Z,4.44
2023-03-06T10:12:49.172Z,4.46
2023-03-06T10:13:49.172Z,4.51
2023-03-06T10:14:49.477Z,4.44
2023-03-06T10:15:49.203Z,4.47
2023-03-06T10:16:49.135Z,4.54
2023-03-06T10:17:49.130Z,4.54
2023-03-06T10:18:49.120Z,4.44
2023-03-06T10:19:49.099Z,4.54
2023-03-06T10:20:49.087Z,4.50
2023-03-06T10:21:49.096Z,4.50
2023-03-06T10:23:00.674Z,4.39
2023-03-06T10:23:50.077Z,4.51
2023-03-06T10:24:49.050Z,4.47
2023-03-06T10:25:49.036Z,4.50
2023-03-06T10:26:49.146Z,4.46
2023-03-06T10:27:49.015Z,4.54
2023-03-06T10:28:49.072Z,4.52
2023-03-06T10:30:01.568Z,4.50
2023-03-06T10:30:50.066Z,4.51
2023-03-06T10:31:49.676Z,4.51
2023-03-06T10:32:49.677Z,4.40
2023-03-06T10:33:48.987Z,4.34
2023-03-06T10:34:48.950Z,4.40
2023-03-06T10:35:48.960Z,4.46
2023-03-06T10:36:48.919Z,4.43
2023-03-06T10:37:48.920Z,4.37
2023-03-06T10:38:49.033Z,4.39
2023-03-06T10:39:48.887Z,4.39
2023-03-06T10:40:48.890Z,4.42
2023-03-06T10:41:48.866Z,4.40
2023-03-06T10:42:53.974Z,4.37
2023-03-06T10:43:49.848Z,4.24
2023-03-06T10:44:48.834Z,4.25
2023-03-06T10:45:49.693Z,4.28
2023-03-06T10:46:48.996Z,4.18
2023-03-06T10:47:48.801Z,4.22
2023-03-06T10:48:48.787Z,4.15
2023-03-06T10:49:48.819Z,4.12
2023-03-06T10:50:48.792Z,4.15
2023-03-06T10:51:48.760Z,4.14
2023-03-06T10:52:48.742Z,4.14
2023-03-06T10:53:48.738Z,4.10
2023-03-06T10:54:48.749Z,4.15
2023-03-06T10:55:48.722Z,4.19
2023-03-06T10:56:48.704Z,4.24
2023-03-06T10:57:48.694Z,4.19
2023-03-06T10:58:48.703Z,4.33
2023-03-06T10:59:48.669Z,4.25
2023-03-06T11:00:48.667Z,4.32
2023-03-06T11:01:48.685Z,4.36
2023-03-06T11:02:48.683Z,4.42
2023-03-06T11:03:48.635Z,4.37
2023-03-06T11:04:48.655Z,4.33
2023-03-06T11:05:48.603Z,4.43
2023-03-06T11:06:48.596Z,4.52
2023-03-06T11:07:48.580Z,4.44
2023-03-06T11:08:48.569Z,4.50
2023-03-06T11:09:48.595Z,4.54
2023-03-06T11:10:48.556Z,4.50
2023-03-06T11:11:48.536Z,4.55
2023-03-06T11:12:48.530Z,4.54
2023-03-06T11:13:48.521Z,4.43
2023-03-06T11:14:48.541Z,4.37
2023-03-06T11:15:48.514Z,4.32
2023-03-06T11:16:48.485Z,4.40
2023-03-06T11:17:48.485Z,4.40
2023-03-06T11:18:48.484Z,4.39
2023-03-06T11:19:48.461Z,4.47
2023-03-06T11:20:52.508Z,4.47
2023-03-06T11:21:48.431Z,4.58
2023-03-06T11:22:49.287Z,4.62
2023-03-06T11:23:48.410Z,4.61
2023-03-06T11:24:48.426Z,4.73
2023-03-06T11:25:48.390Z,4.73
2023-03-06T11:26:48.375Z,4.88
2023-03-06T11:27:48.421Z,4.79
2023-03-06T11:28:48.519Z,4.84
2023-03-06T11:29:48.353Z,4.88
2023-03-06T11:30:48.342Z,4.92
2023-03-06T11:31:48.317Z,4.80
2023-03-06T11:32:48.351Z,4.76
2023-03-06T11:33:48.294Z,4.91
2023-03-06T11:34:50.410Z,4.84
2023-03-06T11:35:48.335Z,4.86
2023-03-06T11:36:48.262Z,4.75
2023-03-06T11:37:48.251Z,4.83
2023-03-06T11:38:48.245Z,4.77
2023-03-06T11:39:48.240Z,4.83
2023-03-06T11:40:48.258Z,4.76
2023-03-06T11:41:48.213Z,4.69
2023-03-06T11:42:48.202Z,4.77
2023-03-06T11:43:48.190Z,4.79
2023-03-06T11:44:48.222Z,4.80
2023-03-06T11:45:48.184Z,4.76
2023-03-06T11:46:48.184Z,4.84
2023-03-06T11:47:48.148Z,4.76
2023-03-06T11:48:48.173Z,4.77
2023-03-06T11:49:48.127Z,4.76
2023-03-06T11:50:48.164Z,4.83
2023-03-06T11:51:48.117Z,4.86
2023-03-06T11:52:48.087Z,4.94
2023-03-06T11:53:48.089Z,4.76
2023-03-06T11:54:48.145Z,4.84
2023-03-06T11:55:48.061Z,4.94
2023-03-06T11:56:48.047Z,4.94
2023-03-06T11:57:48.039Z,4.98
2023-03-06T11:58:48.032Z,5.02
2023-03-06T11:59:48.040Z,5.01
2023-03-06T12:00:48.009Z,4.98
2023-03-06T12:01:48.113Z,4.96
2023-03-06T12:02:47.983Z,5.04
2023-03-06T12:03:48.017Z,4.95
2023-03-06T12:04:47.982Z,5.04
2023-03-06T12:05:47.973Z,5.02
2023-03-06T12:06:47.973Z,5.07
2023-03-06T12:07:47.951Z,5.04
2023-03-06T12:08:47.934Z,5.12
2023-03-06T12:09:47.932Z,5.19
2023-03-06T12:10:51.718Z,5.17
2023-03-06T12:11:47.887Z,5.19
2023-03-06T12:12:47.880Z,5.17
2023-03-06T12:13:47.871Z,5.13
2023-03-06T12:14:47.875Z,5.17
2023-03-06T12:15:47.848Z,5.09
2023-03-06T12:16:47.909Z,5.22
2023-03-06T12:17:47.822Z,5.22
2023-03-06T12:18:47.812Z,5.31
2023-03-06T12:19:47.844Z,5.40
2023-03-06T12:20:47.789Z,5.38
2023-03-06T12:21:47.778Z,5.45
2023-03-06T12:22:58.134Z,5.49
2023-03-06T12:23:48.772Z,5.48
2023-03-06T12:24:47.765Z,5.46
2023-03-06T12:25:47.750Z,5.43
2023-03-06T12:26:47.729Z,5.49
2023-03-06T12:27:47.715Z,5.48
2023-03-06T12:28:47.704Z,5.59
2023-03-06T12:29:47.713Z,5.50
2023-03-06T12:30:47.688Z,5.55
2023-03-06T12:31:47.718Z,5.59
2023-03-06T12:32:47.713Z,5.53
2023-03-06T12:33:47.649Z,5.49
2023-03-06T12:34:47.679Z,5.50
2023-03-06T12:35:47.679Z,5.63
2023-03-06T12:36:47.637Z,5.55
2023-03-06T12:37:47.633Z,5.66
2023-03-06T12:38:47.612Z,5.59
2023-03-06T12:39:47.611Z,5.50
2023-03-06T12:40:47.571Z,5.55
2023-03-06T12:41:47.566Z,5.55
2023-03-06T12:42:47.552Z,5.50
2023-03-06T12:43:47.543Z,5.59
2023-03-06T12:44:47.543Z,5.50
2023-03-06T12:45:47.580Z,5.52
2023-03-06T12:46:47.509Z,5.59
2023-03-06T12:47:47.498Z,5.59
2023-03-06T12:48:47.497Z,5.52
2023-03-06T12:49:48.465Z,5.56
2023-03-06T12:50:47.475Z,5.53
2023-03-06T12:51:47.473Z,5.60
2023-03-06T12:52:47.447Z,5.68
2023-03-06T12:53:47.439Z,5.64
2023-03-06T12:54:47.513Z,5.68
2023-03-06T12:55:47.419Z,5.74
2023-03-06T12:56:47.534Z,5.71
2023-03-06T12:57:47.394Z,5.74
2023-03-06T12:58:47.383Z,5.78
2023-03-06T12:59:47.400Z,5.83
2023-03-06T13:00:49.828Z,5.82
2023-03-06T13:01:48.376Z,5.89
2023-03-06T13:02:47.524Z,5.89
2023-03-06T13:03:47.331Z,5.91
2023-03-06T13:04:47.334Z,5.96
2023-03-06T13:05:47.316Z,5.85
2023-03-06T13:06:50.777Z,5.88
2023-03-06T13:07:47.302Z,5.81
2023-03-06T13:08:47.277Z,5.88
2023-03-06T13:09:47.267Z,5.82
2023-03-06T13:10:47.274Z,5.91
2023-03-06T13:11:47.266Z,5.92
2023-03-06T13:12:47.231Z,5.78
2023-03-06T13:13:47.261Z,5.89
2023-03-06T13:14:54.203Z,5.96
2023-03-06T13:15:48.208Z,5.91
2023-03-06T13:16:47.258Z,6.01
2023-03-06T13:17:47.188Z,6.00
2023-03-06T13:18:47.172Z,5.95